createdAt,value
2018-01-02T00:00:52.305Z,13.33
2018-01-02T00:03:19.773Z,13.77
2018-01-02T00:05:47.230Z,11.97
2018-01-02T00:08:14.694Z,11.93
2018-01-02T00:10:42.147Z,13.97
2018-01-02T00:13:09.610Z,11.80
2018-01-02T00:15:37.066Z,12.63
2018-01-02T00:18:04.523Z,11.83
2018-01-02T00:20:31.985Z,11.07
2018-01-02T00:22:59.436Z,12.00
2018-01-02T00:25:26.914Z,11.70
2018-01-02T00:27:55.163Z,12.27
2018-01-02T00:30:22.629Z,11.70
2018-01-02T00:32:50.086Z,11.30
2018-01-02T00:35:18.368Z,9.90
2018-01-02T00:37:45.813Z,10.80
2018-01-02T00:40:13.287Z,11.00
2018-01-02T00:42:40.742Z,11.40
2018-01-02T00:45:08.196Z,10.47
2018-01-02T00:47:35.657Z,10.53
2018-01-02T00:50:03.115Z,10.33
2018-01-02T00:52:30.574Z,10.20
2018-01-02T00:54:58.046Z,10.10
2018-01-02T00:57:26.272Z,10.13
2018-01-02T00:59:53.763Z,11.20
2018-01-02T01:02:21.209Z,9.10
2018-01-02T01:04:49.734Z,10.17
2018-01-02T01:07:17.209Z,9.43
2018-01-02T01:09:44.670Z,9.33
2018-01-02T01:12:12.133Z,9.60
2018-01-02T01:14:39.582Z,9.70
2018-01-02T01:17:07.052Z,9.33
2018-01-02T01:19:34.517Z,8.80
2018-01-02T01:22:01.990Z,9.60
2018-01-02T01:24:29.467Z,8.67
2018-01-02T01:26:57.710Z,8.63
2018-01-02T01:29:25.159Z,9.40
2018-01-02T01:31:52.622Z,8.30
2018-01-02T01:34:20.086Z,8.60
2018-01-02T01:36:47.558Z,8.33
2018-01-02T01:39:15.015Z,8.70
2018-01-02T01:41:42.477Z,8.30
2018-01-02T01:44:09.936Z,8.87
2018-01-02T01:46:37.397Z,7.90
2018-01-02T01:49:04.850Z,8.33
2018-01-02T01:51:32.314Z,7.37
2018-01-02T01:53:59.880Z,7.90
2018-01-02T01:56:28.219Z,7.40
2018-01-02T01:58:55.665Z,8.03
2018-01-02T02:01:23.125Z,7.50
2018-01-02T02:03:50.598Z,7.30
2018-01-02T02:06:18.053Z,8.00
2018-01-02T02:08:45.509Z,7.17
2018-01-02T02:11:12.969Z,7.10
2018-01-02T02:13:40.430Z,7.70
2018-01-02T02:16:08.649Z,6.90
2018-01-02T02:18:36.138Z,6.60
2018-01-02T02:21:03.593Z,6.47
2018-01-02T02:23:31.462Z,6.50
2018-01-02T02:25:58.920Z,7.27
2018-01-02T02:28:26.399Z,6.70
2018-01-02T02:30:53.840Z,6.13
2018-01-02T02:33:21.313Z,7.03
2018-01-02T02:35:48.770Z,6.10
2018-01-02T02:38:16.226Z,6.20
2018-01-02T02:40:55.491Z,6.10
2018-01-02T02:43:23.724Z,6.93
2018-01-02T02:45:51.249Z,7.00
2018-01-02T02:48:19.473Z,6.80
2018-01-02T02:50:46.933Z,6.10
2018-01-02T02:53:14.403Z,6.07
2018-01-02T02:55:41.846Z,5.80
2018-01-02T02:58:09.309Z,5.93
2018-01-02T03:00:36.774Z,5.80
2018-01-02T03:03:04.221Z,5.50
2018-01-02T03:05:31.696Z,5.57
2018-01-02T03:07:59.141Z,6.00
2018-01-02T03:10:26.613Z,5.90
2018-01-02T03:12:54.056Z,5.50
2018-01-02T03:15:21.513Z,5.20
2018-01-02T03:17:48.980Z,6.27
2018-01-02T03:20:16.433Z,5.77
2018-01-02T03:22:43.901Z,5.87
2018-01-02T03:25:11.362Z,4.83
2018-01-02T03:27:39.585Z,5.87
2018-01-02T03:30:07.094Z,5.73
2018-01-02T03:32:34.541Z,4.83
2018-01-02T03:35:02.034Z,5.43
2018-01-02T03:37:30.244Z,5.60
2018-01-02T03:39:57.746Z,5.20
2018-01-02T03:42:25.194Z,5.00
2018-01-02T03:44:52.664Z,4.80
2018-01-02T03:47:20.894Z,4.87
2018-01-02T03:49:48.346Z,5.17
2018-01-02T03:52:15.796Z,4.93
2018-01-02T03:54:43.253Z,5.10
2018-01-02T03:57:10.719Z,5.20
2018-01-02T03:59:38.173Z,5.00
2018-01-02T04:02:05.630Z,4.90
2018-01-02T04:04:35.033Z,4.60
2018-01-02T04:07:02.541Z,4.00
2018-01-02T04:09:29.945Z,4.27
2018-01-02T04:11:57.422Z,4.30
2018-01-02T04:14:24.869Z,4.00
2018-01-02T04:16:52.327Z,5.00
2018-01-02T04:19:19.789Z,4.10
2018-01-02T04:21:47.254Z,3.87
2018-01-02T04:24:15.488Z,4.40
2018-01-02T04:26:42.939Z,4.00
2018-01-02T04:29:11.174Z,3.90
2018-01-02T04:31:38.629Z,4.07
2018-01-02T04:34:06.082Z,3.40
2018-01-02T04:36:33.546Z,3.80
2018-01-02T04:39:00.992Z,3.70
2018-01-02T04:41:29.251Z,4.27
2018-01-02T04:43:56.700Z,4.43
2018-01-02T04:46:24.160Z,3.80
2018-01-02T04:48:51.618Z,3.40
2018-01-02T04:51:19.081Z,3.97
2018-01-02T04:53:46.546Z,3.73
2018-01-02T04:56:13.988Z,4.33
2018-01-02T04:58:41.446Z,4.17
2018-01-02T05:01:08.905Z,3.80
2018-01-02T05:03:36.369Z,3.30
2018-01-02T05:06:03.829Z,3.30
2018-01-02T05:08:31.282Z,3.20
2018-01-02T05:10:58.732Z,4.00
2018-01-02T05:13:26.194Z,3.47
2018-01-02T05:15:53.643Z,3.60
2018-01-02T05:18:21.112Z,3.40
2018-01-02T05:20:48.608Z,3.97
2018-01-02T05:23:16.066Z,3.60
2018-01-02T05:25:43.521Z,3.33
2018-01-02T05:28:10.981Z,3.97
2018-01-02T05:30:38.442Z,3.50
2018-01-02T05:33:05.885Z,3.50
2018-01-02T05:35:33.338Z,3.47
2018-01-02T05:38:00.809Z,3.27
2018-01-02T05:40:28.269Z,2.93
2018-01-02T05:42:55.712Z,3.40
2018-01-02T05:45:23.714Z,3.37
2018-01-02T05:47:51.932Z,3.17
2018-01-02T05:50:19.405Z,3.60
2018-01-02T05:52:46.877Z,3.60
2018-01-02T05:55:14.341Z,3.33
2018-01-02T05:57:41.802Z,3.90
2018-01-02T06:00:09.259Z,3.40
2018-01-02T06:02:36.945Z,3.47
2018-01-02T06:05:04.396Z,3.50
2018-01-02T06:07:32.622Z,3.30
2018-01-02T06:10:00.102Z,3.43
2018-01-02T06:12:27.569Z,3.37
2018-01-02T06:14:55.047Z,3.63
2018-01-02T06:17:23.257Z,3.40
2018-01-02T06:19:50.709Z,3.00
2018-01-02T06:22:18.173Z,3.30
2018-01-02T06:24:45.639Z,3.07
2018-01-02T06:27:13.083Z,3.13
2018-01-02T06:29:40.546Z,3.27
2018-01-02T06:32:08.007Z,3.00
2018-01-02T06:34:35.454Z,3.53
2018-01-02T06:37:02.910Z,3.00
2018-01-02T06:39:30.370Z,2.97
2018-01-02T06:41:57.828Z,3.17
2018-01-02T06:44:25.283Z,2.73
2018-01-02T06:46:52.750Z,3.00
2018-01-02T06:49:20.207Z,3.30
2018-01-02T06:51:47.669Z,2.90
2018-01-02T06:54:15.122Z,3.10
2018-01-02T06:56:42.568Z,2.90
2018-01-02T06:59:10.025Z,3.03
2018-01-02T07:01:37.490Z,2.90
2018-01-02T07:04:04.968Z,3.23
2018-01-02T07:06:32.420Z,3.30
2018-01-02T07:08:59.889Z,2.70
2018-01-02T07:11:27.398Z,3.10
2018-01-02T07:13:54.846Z,2.90
2018-01-02T07:16:22.309Z,3.17
2018-01-02T07:18:49.758Z,3.00
2018-01-02T07:21:17.205Z,3.00
2018-01-02T07:23:44.665Z,3.03
2018-01-02T07:26:12.897Z,3.20
2018-01-02T07:28:40.358Z,3.00
2018-01-02T07:31:07.801Z,3.10
2018-01-02T07:33:35.262Z,2.70
2018-01-02T07:36:02.709Z,3.20
2018-01-02T07:38:30.189Z,2.87
2018-01-02T07:40:57.642Z,2.90
2018-01-02T07:43:25.861Z,2.90
2018-01-02T07:45:53.310Z,3.37
2018-01-02T07:48:21.533Z,2.70
2018-01-02T07:50:48.982Z,2.70
2018-01-02T07:53:16.446Z,3.20
2018-01-02T07:55:43.894Z,2.70
2018-01-02T07:58:11.353Z,2.57
2018-01-02T08:00:38.814Z,3.40
2018-01-02T08:03:06.272Z,2.83
2018-01-02T08:05:33.725Z,2.90
2018-01-02T08:08:01.188Z,2.70
2018-01-02T08:10:28.650Z,2.83
2018-01-02T08:12:56.116Z,2.70
2018-01-02T08:15:23.972Z,2.97
2018-01-02T08:17:51.469Z,3.10
2018-01-02T08:20:18.922Z,2.67
2018-01-02T08:22:46.377Z,2.20
2018-01-02T08:25:13.838Z,2.90
2018-01-02T08:27:41.294Z,2.70
2018-01-02T08:30:08.798Z,2.90
2018-01-02T08:32:36.282Z,2.70
2018-01-02T08:35:03.737Z,2.53
2018-01-02T08:37:31.341Z,2.87
2018-01-02T08:39:58.781Z,2.20
2018-01-02T08:42:26.234Z,2.70
2018-01-02T08:44:53.694Z,2.50
2018-01-02T08:47:21.141Z,3.03
2018-01-02T08:49:48.610Z,2.80
2018-01-02T08:52:16.054Z,2.80
2018-01-02T08:54:43.517Z,2.20
2018-01-02T08:57:11.738Z,2.10
2018-01-02T08:59:39.198Z,2.27
2018-01-02T09:02:06.650Z,2.97
2018-01-02T09:04:34.107Z,2.63
2018-01-02T09:07:01.561Z,2.60
2018-01-02T09:09:29.074Z,2.70
2018-01-02T09:11:56.540Z,2.50
2018-01-02T09:14:23.989Z,2.63
2018-01-02T09:16:51.446Z,2.77
2018-01-02T09:19:19.671Z,2.93
2018-01-02T09:21:47.134Z,2.60
2018-01-02T09:24:14.583Z,2.50
2018-01-02T09:26:42.813Z,2.83
2018-01-02T09:29:10.256Z,2.40
2018-01-02T09:31:37.726Z,2.70
2018-01-02T09:34:05.173Z,3.10
2018-01-02T09:36:32.646Z,2.90
2018-01-02T09:39:00.862Z,3.30
2018-01-02T09:41:28.331Z,2.93
2018-01-02T09:43:55.777Z,2.53
2018-01-02T09:46:23.234Z,2.30
2018-01-02T09:48:50.685Z,2.40
2018-01-02T09:51:18.918Z,3.00
2018-01-02T09:53:46.379Z,2.40
2018-01-02T09:56:14.601Z,2.73
2018-01-02T09:58:42.056Z,2.97
2018-01-02T10:01:10.288Z,2.53
2018-01-02T10:03:37.745Z,2.60
2018-01-02T10:06:05.993Z,2.33
2018-01-02T10:08:33.453Z,3.03
2018-01-02T10:11:00.914Z,2.60
2018-01-02T10:13:28.365Z,2.40
2018-01-02T10:15:55.825Z,2.70
2018-01-02T10:18:23.286Z,2.40
2018-01-02T10:20:50.761Z,2.30
2018-01-02T10:23:18.218Z,2.30
2018-01-02T10:25:46.455Z,2.30
2018-01-02T10:28:13.930Z,2.70
2018-01-02T10:30:41.401Z,2.20
2018-01-02T10:33:08.878Z,2.87
2018-01-02T10:35:37.093Z,2.30
2018-01-02T10:38:04.552Z,2.60
2018-01-02T10:40:32.001Z,2.60
2018-01-02T10:43:00.229Z,2.20
2018-01-02T10:45:27.685Z,2.30
2018-01-02T10:47:55.157Z,2.47
2018-01-02T10:50:22.608Z,2.30
2018-01-02T10:52:50.086Z,2.27
2018-01-02T10:55:17.546Z,2.53
2018-01-02T10:57:44.989Z,2.43
2018-01-02T11:00:12.453Z,2.50
2018-01-02T11:02:39.898Z,2.70
2018-01-02T11:05:07.357Z,3.20
2018-01-02T11:07:34.810Z,3.03
2018-01-02T11:10:02.266Z,6.03
2018-01-02T11:12:35.432Z,10.37
2018-01-02T11:15:02.889Z,7.90
2018-01-02T11:17:30.347Z,2.57
2018-01-02T11:19:57.800Z,2.50
2018-01-02T11:22:25.269Z,2.67
2018-01-02T11:24:52.746Z,5.10
2018-01-02T11:27:20.189Z,5.10
2018-01-02T11:29:47.649Z,2.20
2018-01-02T11:32:15.105Z,2.33
2018-01-02T11:34:42.570Z,2.33
2018-01-02T11:37:10.026Z,1.90
2018-01-02T11:39:38.280Z,2.10
2018-01-02T11:42:05.738Z,2.33
2018-01-02T11:44:33.210Z,2.17
2018-01-02T11:47:01.425Z,2.63
2018-01-02T11:49:29.651Z,2.63
2018-01-02T11:51:57.110Z,2.90
2018-01-02T11:54:24.557Z,2.10
2018-01-02T11:56:52.026Z,1.80
2018-01-02T11:59:19.481Z,2.50
2018-01-02T12:01:46.941Z,2.17
2018-01-02T12:04:14.389Z,2.60
2018-01-02T12:06:41.861Z,2.27
2018-01-02T12:09:09.317Z,2.47
2018-01-02T12:11:36.795Z,2.30
2018-01-02T12:14:04.232Z,2.13
2018-01-02T12:16:31.701Z,2.70
2018-01-02T12:18:59.949Z,2.40
2018-01-02T12:21:27.409Z,2.30
2018-01-02T12:23:54.877Z,2.60
2018-01-02T12:26:22.347Z,2.10
2018-01-02T12:28:49.796Z,2.30
2018-01-02T12:31:17.250Z,2.80
2018-01-02T12:33:44.714Z,1.80
2018-01-02T12:36:12.190Z,2.17
2018-01-02T12:38:39.652Z,1.87
2018-01-02T12:41:07.113Z,2.10
2018-01-02T12:43:34.574Z,2.07
2018-01-02T12:46:02.025Z,2.20
2018-01-02T12:48:29.495Z,2.70
2018-01-02T12:50:56.945Z,2.50
2018-01-02T12:53:24.420Z,2.10
2018-01-02T12:55:51.861Z,2.30
2018-01-02T12:58:19.327Z,2.40
2018-01-02T13:00:47.548Z,2.20
2018-01-02T13:03:15.010Z,2.20
2018-01-02T13:05:42.462Z,1.97
2018-01-02T13:08:09.925Z,2.60
2018-01-02T13:10:37.375Z,2.10
2018-01-02T13:13:04.828Z,2.10
2018-01-02T13:15:32.269Z,2.40
2018-01-02T13:17:59.761Z,1.93
2018-01-02T13:20:27.979Z,2.20
2018-01-02T13:22:56.217Z,1.93
2018-01-02T13:25:24.189Z,1.90
2018-01-02T13:27:51.652Z,1.93
2018-01-02T13:30:19.113Z,1.80
2018-01-02T13:32:46.577Z,1.80
2018-01-02T13:35:14.032Z,1.93
2018-01-02T13:37:41.514Z,1.67
2018-01-02T13:40:09.737Z,2.17
2018-01-02T13:42:37.220Z,1.70
2018-01-02T13:45:04.677Z,1.97
2018-01-02T13:47:32.138Z,2.00
2018-01-02T13:49:59.602Z,1.70
2018-01-02T13:52:27.076Z,1.90
2018-01-02T13:54:55.304Z,1.87
2018-01-02T13:57:22.778Z,2.10
2018-01-02T13:59:50.236Z,1.90
2018-01-02T14:02:17.698Z,2.50
2018-01-02T14:04:45.157Z,2.20
2018-01-02T14:07:12.613Z,2.17
2018-01-02T14:09:40.069Z,1.70
2018-01-02T14:12:07.538Z,2.10
2018-01-02T14:14:34.994Z,1.93
2018-01-02T14:17:02.445Z,2.17
2018-01-02T14:19:29.909Z,1.97
2018-01-02T14:21:57.376Z,1.70
2018-01-02T14:24:24.846Z,2.17
2018-01-02T14:26:52.297Z,2.57
2018-01-02T14:29:20.529Z,1.97
2018-01-02T14:31:47.969Z,2.00
2018-01-02T14:34:15.428Z,1.83
2018-01-02T14:36:42.883Z,2.00
2018-01-02T14:39:10.398Z,1.83
2018-01-02T14:41:38.619Z,1.83
2018-01-02T14:44:06.073Z,2.07
2018-01-02T14:46:33.530Z,1.90
2018-01-02T14:49:01.014Z,2.20
2018-01-02T14:51:28.493Z,2.17
2018-01-02T14:53:55.958Z,2.00
2018-01-02T14:56:24.198Z,2.43
2018-01-02T14:58:51.658Z,1.77
2018-01-02T15:01:19.135Z,2.50
2018-01-02T15:03:46.596Z,1.87
2018-01-02T15:06:14.052Z,2.20
2018-01-02T15:08:41.509Z,2.10
2018-01-02T15:11:08.972Z,1.97
2018-01-02T15:13:36.425Z,2.30
2018-01-02T15:16:03.890Z,1.83
2018-01-02T15:18:31.362Z,2.23
2018-01-02T15:20:58.840Z,2.10
2018-01-02T15:23:26.287Z,2.03
2018-01-02T15:25:53.782Z,1.93
2018-01-02T15:28:21.237Z,1.90
2018-01-02T15:30:48.717Z,2.40
2018-01-02T15:33:16.177Z,2.33
2018-01-02T15:35:43.634Z,2.23
2018-01-02T15:38:11.160Z,1.60
2018-01-02T15:40:38.621Z,2.30
2018-01-02T15:43:06.073Z,2.07
2018-01-02T15:45:33.526Z,1.83
2018-01-02T15:48:01.058Z,2.13
2018-01-02T15:50:28.518Z,2.13
2018-01-02T15:52:55.978Z,1.80
2018-01-02T15:55:23.439Z,2.03
2018-01-02T15:57:50.918Z,2.30
2018-01-02T16:00:18.382Z,2.20
2018-01-02T16:02:45.856Z,2.10
2018-01-02T16:05:13.302Z,2.50
2018-01-02T16:07:40.782Z,2.30
2018-01-02T16:10:08.236Z,2.23
2018-01-02T16:12:36.445Z,2.00
2018-01-02T16:15:03.893Z,2.30
2018-01-02T16:17:32.118Z,2.47
2018-01-02T16:19:59.564Z,2.40
2018-01-02T16:22:27.037Z,2.70
2018-01-02T16:24:54.484Z,2.53
2018-01-02T16:27:21.955Z,2.83
2018-01-02T16:29:49.409Z,2.80
2018-01-02T16:32:16.873Z,4.00
2018-01-02T16:34:44.398Z,6.90
2018-01-02T16:37:11.877Z,6.00
2018-01-02T16:39:39.329Z,6.43
2018-01-02T16:42:06.841Z,7.50
2018-01-02T16:44:34.305Z,7.20
2018-01-02T16:47:02.526Z,6.83
2018-01-02T16:49:30.026Z,5.83
2018-01-02T16:51:57.523Z,5.63
2018-01-02T16:54:24.973Z,6.00
2018-01-02T16:56:52.469Z,5.40
2018-01-02T16:59:20.003Z,5.50
2018-01-02T17:01:47.440Z,5.20
2018-01-02T17:04:14.934Z,4.97
2018-01-02T17:06:42.383Z,4.97
2018-01-02T17:09:09.842Z,5.10
2018-01-02T17:11:37.354Z,4.93
2018-01-02T17:14:04.807Z,5.07
2018-01-02T17:16:32.257Z,4.83
2018-01-02T17:18:59.717Z,4.50
2018-01-02T17:21:27.162Z,4.60
2018-01-02T17:23:54.626Z,4.37
2018-01-02T17:26:22.073Z,4.23
2018-01-02T17:28:49.529Z,4.67
2018-01-02T17:31:17.006Z,4.83
2018-01-02T17:33:45.254Z,4.00
2018-01-02T17:36:12.710Z,4.63
2018-01-02T17:38:40.177Z,5.10
2018-01-02T17:41:07.621Z,4.23
2018-01-02T17:43:35.080Z,5.00
2018-01-02T17:46:02.566Z,4.30
2018-01-02T17:48:32.019Z,4.27
2018-01-02T17:50:59.462Z,4.30
2018-01-02T17:53:26.905Z,4.37
2018-01-02T17:55:55.149Z,4.07
2018-01-02T17:58:22.609Z,4.37
2018-01-02T18:00:50.073Z,4.10
2018-01-02T18:03:17.530Z,4.20
2018-01-02T18:05:44.985Z,4.43
2018-01-02T18:08:12.438Z,4.53
2018-01-02T18:10:39.899Z,4.10
2018-01-02T18:13:07.353Z,4.20
2018-01-02T18:15:34.808Z,4.77
2018-01-02T18:18:02.266Z,4.23
2018-01-02T18:20:29.729Z,4.10
2018-01-02T18:22:57.189Z,3.97
2018-01-02T18:25:25.354Z,4.53
2018-01-02T18:27:52.797Z,4.20
2018-01-02T18:30:21.026Z,3.90
2018-01-02T18:32:48.467Z,4.27
2018-01-02T18:35:16.708Z,4.13
2018-01-02T18:37:44.165Z,4.30
2018-01-02T18:40:11.617Z,4.77
2018-01-02T18:42:39.074Z,4.43
2018-01-02T18:45:06.541Z,4.10
2018-01-02T18:47:33.988Z,4.83
2018-01-02T18:50:02.213Z,4.70
2018-01-02T18:52:30.425Z,4.43
2018-01-02T18:54:57.893Z,4.30
2018-01-02T18:57:25.357Z,5.00
2018-01-02T18:59:52.825Z,4.77
2018-01-02T19:02:20.269Z,5.03
2018-01-02T19:04:48.477Z,4.43
2018-01-02T19:07:16.705Z,5.00
2018-01-02T19:09:44.157Z,4.97
2018-01-02T19:12:11.617Z,4.97
2018-01-02T19:14:39.073Z,5.47
2018-01-02T19:17:06.545Z,4.93
2018-01-02T19:19:34.003Z,5.30
2018-01-02T19:22:01.482Z,4.90
2018-01-02T19:24:28.925Z,5.63
2018-01-02T19:26:56.385Z,4.77
2018-01-02T19:29:23.833Z,5.10
2018-01-02T19:31:51.293Z,5.50
2018-01-02T19:34:18.758Z,4.80
2018-01-02T19:36:46.213Z,5.00
2018-01-02T19:39:13.682Z,5.30
2018-01-02T19:41:41.124Z,4.50
2018-01-02T19:44:08.577Z,5.30
2018-01-02T19:46:36.043Z,5.37
2018-01-02T19:49:03.502Z,6.00
2018-01-02T19:51:30.955Z,5.47
2018-01-02T19:53:58.421Z,5.40
2018-01-02T19:56:26.647Z,5.30
2018-01-02T19:58:54.098Z,4.50
2018-01-02T20:01:21.569Z,4.93
2018-01-02T20:03:49.032Z,4.93
2018-01-02T20:06:16.499Z,4.47
2018-01-02T20:08:43.956Z,5.00
2018-01-02T20:11:11.418Z,4.87
2018-01-02T20:13:38.919Z,5.23
2018-01-02T20:16:06.333Z,5.03
2018-01-02T20:18:39.365Z,5.10
2018-01-02T20:21:06.806Z,4.90
2018-01-02T20:23:34.273Z,5.10
2018-01-02T20:26:01.725Z,5.50
2018-01-02T20:28:29.185Z,5.30
2018-01-02T20:30:56.637Z,4.73
2018-01-02T20:33:24.093Z,5.00
2018-01-02T20:35:51.547Z,5.03
2018-01-02T20:38:19.004Z,5.53
2018-01-02T20:40:46.462Z,5.13
2018-01-02T20:43:13.921Z,4.90
2018-01-02T20:45:41.386Z,5.43
2018-01-02T20:48:08.844Z,5.13
2018-01-02T20:50:36.293Z,5.10
2018-01-02T20:53:03.750Z,4.97
2018-01-02T20:55:31.205Z,5.23
2018-01-02T20:57:58.676Z,4.90
2018-01-02T21:00:26.129Z,5.33
2018-01-02T21:02:53.581Z,4.83
2018-01-02T21:05:21.044Z,5.83
2018-01-02T21:07:48.497Z,4.47
2018-01-02T21:10:15.952Z,5.43
2018-01-02T21:12:43.455Z,6.00
2018-01-02T21:15:10.905Z,4.80
2018-01-02T21:17:38.409Z,5.10
2018-01-02T21:20:05.868Z,5.63
2018-01-02T21:22:33.322Z,6.00
2018-01-02T21:25:00.781Z,5.13
2018-01-02T21:27:28.277Z,5.30
2018-01-02T21:29:55.749Z,5.47
2018-01-02T21:32:23.197Z,5.57
2018-01-02T21:34:51.438Z,4.83
2018-01-02T21:37:18.889Z,5.13
2018-01-02T21:39:46.345Z,5.00
2018-01-02T21:42:13.798Z,5.30
2018-01-02T21:44:41.257Z,4.97
2018-01-02T21:47:08.722Z,5.57
2018-01-02T21:49:36.185Z,5.43
2018-01-02T21:52:03.638Z,5.47
2018-01-02T21:54:31.120Z,5.47
2018-01-02T21:56:58.574Z,5.37
2018-01-02T21:59:26.029Z,4.93
2018-01-02T22:01:53.493Z,5.77
2018-01-02T22:04:21.726Z,5.07
2018-01-02T22:06:49.270Z,5.70
2018-01-02T22:09:16.753Z,5.40
2018-01-02T22:11:44.211Z,5.43
2018-01-02T22:14:11.675Z,4.90
2018-01-02T22:16:39.132Z,5.17
2018-01-02T22:19:06.609Z,4.83
2018-01-02T22:21:34.066Z,4.73
2018-01-02T22:24:02.478Z,5.37
2018-01-02T22:26:29.928Z,4.90
2018-01-02T22:28:58.158Z,4.57
2018-01-02T22:31:25.662Z,4.20
2018-01-02T22:33:53.889Z,5.30
2018-01-02T22:36:21.357Z,4.70
2018-01-02T22:38:48.809Z,4.50
2018-01-02T22:41:16.270Z,4.60
2018-01-02T22:43:43.716Z,4.80
2018-01-02T22:46:11.176Z,4.10
2018-01-02T22:48:38.683Z,4.50
2018-01-02T22:51:06.146Z,4.80
2018-01-02T22:53:33.602Z,4.30
2018-01-02T22:56:01.057Z,4.60
2018-01-02T22:58:28.513Z,4.47
2018-01-02T23:00:56.008Z,4.10
2018-01-02T23:03:23.417Z,3.93
2018-01-02T23:05:51.668Z,4.27
2018-01-02T23:08:19.112Z,4.00
2018-01-02T23:10:46.572Z,3.60
2018-01-02T23:13:14.026Z,4.07
2018-01-02T23:15:41.482Z,4.00
2018-01-02T23:18:08.994Z,3.63
2018-01-02T23:20:36.461Z,3.90
2018-01-02T23:23:03.917Z,4.80
2018-01-02T23:25:31.373Z,3.47
2018-01-02T23:27:58.973Z,3.43
2018-01-02T23:30:26.433Z,3.73
2018-01-02T23:32:53.890Z,3.23
2018-01-02T23:35:21.348Z,3.40
2018-01-02T23:37:48.825Z,3.10
2018-01-02T23:40:16.281Z,3.60
2018-01-02T23:42:43.747Z,3.40
2018-01-02T23:45:11.193Z,3.23
2018-01-02T23:47:38.645Z,2.97
2018-01-02T23:50:06.108Z,3.10
2018-01-02T23:52:33.561Z,3.33
2018-01-02T23:55:01.014Z,3.70
2018-01-02T23:57:28.478Z,2.90
2018-01-02T23:59:55.925Z,3.90
